Time;durP1;ratioP1;P1;durP2;ratioP2;P2;SDS_P1;SDS_P2;PMS_P1;PMS_P2;Temp;Humidity;BMP_temperature;BMP_pressure;BME280_temperature;BME280_humidity;BME280_pressure;Samples;Min_cycle;Max_cycle;Signal;HPM_P1;HPM_P2
2024/03/11 00:00:28;;;;;;;6.53;5.90;;;19.60;99.90;;;;;;4974954;28;20023;-48
2024/03/11 00:02:55;;;;;;;5.53;4.95;;;19.60;99.90;;;;;;4975537;28;20015;-48
2024/03/11 00:05:20;;;;;;;6.60;6.00;;;19.60;99.90;;;;;;4975818;28;20074;-48
2024/03/11 00:07:46;;;;;;;6.22;5.40;;;19.60;99.90;;;;;;4974013;28;20492;-48
2024/03/11 00:10:12;;;;;;;6.53;5.75;;;19.50;99.90;;;;;;4975433;28;20030;-49
2024/03/11 00:12:49;;;;;;;6.28;5.68;;;19.60;99.90;;;;;;4990064;28;20037;-49
2024/03/11 00:15:15;;;;;;;5.72;5.13;;;19.50;99.90;;;;;;4990182;28;20551;-49
2024/03/11 00:17:42;;;;;;;6.07;5.47;;;19.50;99.90;;;;;;4975354;28;20029;-49
2024/03/11 00:20:09;;;;;;;6.43;5.70;;;19.60;99.90;;;;;;4974828;28;20051;-48
2024/03/11 00:22:38;;;;;;;6.10;5.32;;;19.50;99.90;;;;;;4997201;28;20114;-49
2024/03/11 00:25:08;;;;;;;5.88;5.28;;;19.50;99.90;;;;;;4975310;28;20037;-49
2024/03/11 00:27:37;;;;;;;8.32;5.63;;;19.50;99.90;;;;;;4967895;28;20131;-48
2024/03/11 00:30:08;;;;;;;6.20;5.53;;;19.50;99.90;;;;;;4989828;28;20067;-48
2024/03/11 00:32:38;;;;;;;5.93;5.10;;;19.50;99.90;;;;;;4990277;28;20033;-49
2024/03/11 00:35:06;;;;;;;5.90;5.30;;;19.50;99.90;;;;;;4974997;28;20042;-49
2024/03/11 00:37:31;;;;;;;5.78;5.15;;;19.50;99.90;;;;;;4972383;28;20114;-49
2024/03/11 00:39:57;;;;;;;6.38;5.57;;;19.50;99.90;;;;;;4974753;28;20581;-48
2024/03/11 00:42:23;;;;;;;6.05;5.45;;;19.50;99.90;;;;;;4974545;28;20022;-49
2024/03/11 00:44:50;;;;;;;6.68;5.68;;;19.50;99.90;;;;;;4974864;28;20513;-48
2024/03/11 00:47:18;;;;;;;6.40;5.80;;;19.50;99.90;;;;;;4974949;28;20034;-49
2024/03/11 00:49:45;;;;;;;6.45;5.28;;;19.50;99.90;;;;;;4989858;28;20125;-48
2024/03/11 00:54:38;;;;;;;5.28;4.80;;;19.50;99.90;;;;;;4974464;28;20059;-39
2024/03/11 00:57:05;;;;;;;5.47;4.97;;;19.50;99.90;;;;;;4975959;28;20030;-39
2024/03/11 00:59:30;;;;;;;5.97;5.00;;;19.50;99.90;;;;;;4975759;28;20023;-39
2024/03/11 01:01:56;;;;;;;5.65;4.90;;;19.50;99.90;;;;;;4975741;28;20385;-39
2024/03/11 01:04:22;;;;;;;5.22;4.80;;;19.50;99.90;;;;;;4978181;28;20023;-39
2024/03/11 01:06:48;;;;;;;5.93;5.32;;;19.50;99.90;;;;;;4975772;28;20462;-39
2024/03/11 01:09:15;;;;;;;5.38;4.88;;;19.50;99.90;;;;;;4975359;28;20030;-39
2024/03/11 01:11:43;;;;;;;5.15;4.75;;;19.50;99.90;;;;;;4975349;28;20058;-39
2024/03/11 01:14:09;;;;;;;5.05;4.55;;;19.50;99.90;;;;;;4974039;28;20034;-39
2024/03/11 01:16:37;;;;;;;6.13;4.65;;;19.50;99.90;;;;;;4975660;28;20031;-39
2024/03/11 01:19:02;;;;;;;4.82;4.43;;;19.40;99.90;;;;;;4973916;28;20030;-39
2024/03/11 01:21:28;;;;;;;4.57;4.18;;;19.50;99.90;;;;;;4974675;28;20019;-39
2024/03/11 01:23:53;;;;;;;4.80;4.25;;;19.50;99.90;;;;;;4974355;28;20027;-39
2024/03/11 01:26:19;;;;;;;5.03;4.53;;;19.50;99.90;;;;;;4974368;28;20077;-39
2024/03/11 01:28:44;;;;;;;6.18;4.78;;;19.40;99.90;;;;;;4974671;28;20105;-39
2024/03/11 01:31:10;;;;;;;5.00;4.50;;;19.50;99.90;;;;;;4989377;28;20052;-39
2024/03/11 01:33:36;;;;;;;4.55;4.03;;;19.40;99.90;;;;;;4975433;28;20031;-39
2024/03/11 01:36:02;;;;;;;4.38;3.92;;;19.50;99.90;;;;;;4977543;28;20442;-39
2024/03/11 01:38:27;;;;;;;5.10;4.30;;;19.40;99.90;;;;;;4982329;28;20102;-40
2024/03/11 01:40:53;;;;;;;4.72;4.20;;;19.40;99.90;;;;;;4981471;28;20034;-39
2024/03/11 01:43:19;;;;;;;4.50;4.10;;;19.40;99.90;;;;;;4978126;28;20046;-39
2024/03/11 01:45:44;;;;;;;4.72;4.32;;;19.40;99.90;;;;;;4983868;28;20125;-39
2024/03/11 01:48:10;;;;;;;4.35;3.95;;;19.40;99.90;;;;;;4982608;28;20090;-39
2024/03/11 01:50:39;;;;;;;5.18;4.35;;;19.50;99.90;;;;;;4976336;28;20110;-40
2024/03/11 01:53:06;;;;;;;4.72;4.32;;;19.40;99.90;;;;;;4979067;28;20126;-39
2024/03/11 01:55:32;;;;;;;4.72;4.32;;;19.40;99.90;;;;;;4991683;28;20038;-39
2024/03/11 01:58:00;;;;;;;4.25;3.85;;;19.40;99.90;;;;;;4992646;28;20027;-39
2024/03/11 02:00:26;;;;;;;4.43;4.03;;;19.40;99.90;;;;;;4983949;28;20035;-39
2024/03/11 02:02:53;;;;;;;3.88;3.35;;;19.40;99.90;;;;;;4975655;28;20050;-39
2024/03/11 02:05:20;;;;;;;4.15;3.75;;;19.50;99.90;;;;;;4976278;28;20037;-39
2024/03/11 02:07:51;;;;;;;4.13;3.72;;;19.40;99.90;;;;;;4975917;28;20089;-39
2024/03/11 02:10:19;;;;;;;4.10;3.80;;;19.50;99.90;;;;;;4976769;28;20461;-39
2024/03/11 02:12:46;;;;;;;5.03;3.95;;;19.50;99.90;;;;;;4975949;28;20034;-39
2024/03/11 02:15:13;;;;;;;4.47;3.92;;;19.40;99.90;;;;;;4975806;28;20027;-39
2024/03/11 02:17:40;;;;;;;3.75;3.45;;;19.50;99.90;;;;;;4972947;28;20030;-39
2024/03/11 02:20:16;;;;;;;4.15;3.67;;;19.50;99.90;;;;;;4972907;28;20030;-39
2024/03/11 02:22:52;;;;;;;4.47;4.07;;;19.40;99.90;;;;;;4975817;28;20490;-39
2024/03/11 02:25:26;;;;;;;4.70;4.05;;;19.50;99.90;;;;;;4975001;28;20536;-40
2024/03/11 02:27:57;;;;;;;3.63;3.30;;;19.40;99.90;;;;;;4976779;28;20026;-39
2024/03/11 02:30:23;;;;;;;4.00;3.42;;;19.40;99.90;;;;;;4975154;28;20418;-40
2024/03/11 02:32:49;;;;;;;4.90;4.03;;;19.40;99.90;;;;;;4975443;28;20045;-39
2024/03/11 02:35:15;;;;;;;5.28;3.75;;;19.40;99.90;;;;;;4976073;28;20023;-39
2024/03/11 02:37:43;;;;;;;3.75;3.45;;;19.40;99.90;;;;;;4976449;28;20050;-38
2024/03/11 02:40:09;;;;;;;4.00;3.40;;;19.40;99.90;;;;;;4975408;28;20038;-38
2024/03/11 02:42:36;;;;;;;4.55;3.95;;;19.40;99.90;;;;;;4973102;28;20374;-39
2024/03/11 02:45:05;;;;;;;3.50;3.17;;;19.40;99.90;;;;;;4974481;28;20097;-38
2024/03/11 02:47:32;;;;;;;4.25;3.85;;;19.40;99.90;;;;;;4973280;28;20307;-38
2024/03/11 02:49:58;;;;;;;3.25;2.95;;;19.40;99.90;;;;;;4973281;28;20031;-38
2024/03/11 02:52:23;;;;;;;4.75;3.60;;;19.40;99.90;;;;;;4973535;28;20502;-38
2024/03/11 02:54:51;;;;;;;3.60;3.30;;;19.40;99.90;;;;;;4973910;28;20223;-38
2024/03/11 02:57:19;;;;;;;3.25;2.95;;;19.40;99.90;;;;;;4972792;28;20026;-38
2024/03/11 02:59:45;;;;;;;3.97;3.58;;;19.40;99.90;;;;;;4973383;28;20453;-38
2024/03/11 03:02:11;;;;;;;3.90;3.22;;;19.40;99.90;;;;;;4976508;28;20381;-38
2024/03/11 03:04:40;;;;;;;3.67;3.38;;;19.40;99.90;;;;;;4977638;28;20019;-39
2024/03/11 03:07:12;;;;;;;3.80;3.15;;;19.30;99.90;;;;;;4977089;28;20077;-38
2024/03/11 03:09:38;;;;;;;3.65;3.35;;;19.30;99.90;;;;;;4977714;28;20034;-38
2024/03/11 03:12:04;;;;;;;3.20;2.90;;;19.40;99.90;;;;;;4977247;28;20323;-38
2024/03/11 03:14:30;;;;;;;3.58;3.28;;;19.30;99.90;;;;;;4976565;28;20100;-38
2024/03/11 03:16:57;;;;;;;3.50;3.20;;;19.30;99.90;;;;;;4992450;28;20440;-38
2024/03/11 03:19:22;;;;;;;3.15;2.80;;;19.30;99.90;;;;;;4977470;28;20035;-38
2024/03/11 03:21:48;;;;;;;3.65;3.25;;;19.30;99.90;;;;;;4977039;28;20106;-38
2024/03/11 03:24:14;;;;;;;3.72;3.42;;;19.30;99.90;;;;;;4977251;28;20034;-39
2024/03/11 03:26:39;;;;;;;3.97;3.17;;;19.40;99.90;;;;;;4977760;28;20563;-39
2024/03/11 03:29:06;;;;;;;3.13;2.55;;;19.30;99.90;;;;;;4993709;28;20031;-39
2024/03/11 03:31:32;;;;;;;3.70;3.40;;;19.30;99.90;;;;;;4978076;28;20078;-38
2024/03/11 03:33:58;;;;;;;3.05;2.72;;;19.30;99.90;;;;;;4992488;28;20401;-38
2024/03/11 03:36:24;;;;;;;4.15;2.95;;;19.40;99.90;;;;;;4977064;28;20109;-38
2024/03/11 03:38:50;;;;;;;3.47;3.03;;;19.30;99.90;;;;;;4976877;28;20054;-39
2024/03/11 03:41:16;;;;;;;2.95;2.67;;;19.30;99.90;;;;;;4977649;28;20038;-39
2024/03/11 03:43:43;;;;;;;3.00;2.70;;;19.30;99.90;;;;;;4984101;28;20042;-38
2024/03/11 03:46:08;;;;;;;3.00;2.70;;;19.30;99.90;;;;;;5000255;28;20026;-39
2024/03/11 03:48:34;;;;;;;2.97;2.72;;;19.40;99.90;;;;;;4982273;28;20131;-39
2024/03/11 03:51:03;;;;;;;2.75;2.55;;;19.30;99.90;;;;;;4980490;28;20023;-39
2024/03/11 03:53:29;;;;;;;3.20;2.90;;;19.30;99.90;;;;;;4976479;28;20041;-39
2024/03/11 03:55:55;;;;;;;3.30;3.00;;;19.40;99.90;;;;;;4977751;28;20114;-39
2024/03/11 03:58:20;;;;;;;2.95;2.75;;;19.30;99.90;;;;;;4977320;28;20418;-39
2024/03/11 04:00:46;;;;;;;2.70;2.50;;;19.30;99.90;;;;;;4976829;28;20370;-39
2024/03/11 04:03:11;;;;;;;2.75;2.55;;;19.30;99.90;;;;;;4977629;28;20029;-39
2024/03/11 04:05:37;;;;;;;2.60;2.40;;;19.30;99.90;;;;;;4977752;28;20390;-38
2024/03/11 04:08:03;;;;;;;2.83;2.63;;;19.30;99.90;;;;;;4977070;28;20504;-38
2024/03/11 04:10:29;;;;;;;2.63;2.42;;;19.30;99.90;;;;;;4976595;28;20057;-38
2024/03/11 04:12:56;;;;;;;2.70;2.50;;;19.30;99.90;;;;;;4977392;28;20030;-39
2024/03/11 04:15:23;;;;;;;2.72;2.53;;;19.30;99.90;;;;;;4978555;28;20031;-39
2024/03/11 04:17:50;;;;;;;2.50;2.30;;;19.30;99.90;;;;;;4977753;28;20023;-39
2024/03/11 04:20:16;;;;;;;2.35;2.15;;;19.30;99.90;;;;;;4977791;28;20027;-39
2024/03/11 04:22:49;;;;;;;2.40;2.20;;;19.30;99.90;;;;;;4978528;28;20106;-39
2024/03/11 04:25:21;;;;;;;2.50;2.30;;;19.30;99.90;;;;;;4984494;28;20027;-39
2024/03/11 04:27:47;;;;;;;2.50;2.30;;;19.30;99.90;;;;;;4977511;28;20114;-39
2024/03/11 04:30:19;;;;;;;2.30;2.10;;;19.30;99.90;;;;;;4979379;28;20150;-39
2024/03/11 04:32:51;;;;;;;2.42;2.22;;;19.30;99.90;;;;;;4978045;28;20082;-39
2024/03/11 04:35:17;;;;;;;3.13;2.22;;;19.30;99.90;;;;;;4977985;28;20031;-39
2024/03/11 04:37:43;;;;;;;3.33;2.38;;;19.30;99.90;;;;;;4960790;28;20054;-39
2024/03/11 04:40:09;;;;;;;2.47;2.28;;;19.30;99.90;;;;;;4996241;28;20504;-39
2024/03/11 04:42:35;;;;;;;2.30;2.10;;;19.40;99.90;;;;;;4977369;28;20059;-39
2024/03/11 04:45:00;;;;;;;2.42;2.03;;;19.40;99.90;;;;;;4981653;28;20023;-39
2024/03/11 04:47:26;;;;;;;2.28;1.95;;;19.40;99.90;;;;;;4982442;28;20023;-39
2024/03/11 04:49:51;;;;;;;2.72;2.53;;;19.40;99.90;;;;;;4983497;28;20090;-39
2024/03/11 04:52:17;;;;;;;1.95;1.85;;;19.40;99.90;;;;;;4976660;28;20031;-39
2024/03/11 04:54:42;;;;;;;2.42;2.22;;;19.40;99.90;;;;;;4994970;28;20035;-39
2024/03/11 04:57:08;;;;;;;3.72;1.92;;;19.40;99.90;;;;;;4982811;28;20034;-39
2024/03/11 04:59:34;;;;;;;2.15;1.95;;;19.40;99.90;;;;;;4982769;28;20045;-39
2024/03/11 05:01:59;;;;;;;2.40;2.20;;;19.40;99.90;;;;;;4982948;28;20027;-39
2024/03/11 05:04:25;;;;;;;2.05;1.85;;;19.40;99.90;;;;;;4987030;28;20026;-39
2024/03/11 05:06:51;;;;;;;2.00;1.80;;;19.40;99.90;;;;;;4982908;28;20019;-40
2024/03/11 05:09:16;;;;;;;2.35;2.13;;;19.40;99.90;;;;;;4984888;28;20078;-39
2024/03/11 05:11:42;;;;;;;2.40;1.98;;;19.40;99.90;;;;;;4982744;28;20038;-39
2024/03/11 05:14:09;;;;;;;2.17;1.92;;;19.40;99.90;;;;;;4981577;28;20043;-39
2024/03/11 05:16:34;;;;;;;1.80;1.70;;;19.30;99.90;;;;;;5001461;28;20022;-39
2024/03/11 05:19:00;;;;;;;2.40;2.00;;;19.30;99.90;;;;;;4983054;28;20059;-39
2024/03/11 05:21:26;;;;;;;2.20;2.00;;;19.40;99.90;;;;;;4979674;28;20019;-39
2024/03/11 05:23:52;;;;;;;2.42;2.22;;;19.30;99.90;;;;;;4977062;28;20128;-39
2024/03/11 05:26:18;;;;;;;2.00;1.90;;;19.30;99.90;;;;;;4979157;28;20457;-39
2024/03/11 05:28:44;;;;;;;2.28;2.08;;;19.30;99.90;;;;;;4979298;28;20106;-39
2024/03/11 05:31:11;;;;;;;2.35;1.95;;;19.30;99.90;;;;;;4977632;28;20078;-39
2024/03/11 05:33:36;;;;;;;1.77;1.67;;;19.30;99.90;;;;;;4977319;28;20018;-39
2024/03/11 05:36:02;;;;;;;1.98;1.75;;;19.30;99.90;;;;;;4976811;28;20422;-39
2024/03/11 05:38:28;;;;;;;2.05;1.90;;;19.30;99.90;;;;;;4976575;28;20026;-38
2024/03/11 05:40:54;;;;;;;2.30;2.10;;;19.30;99.90;;;;;;4976216;28;20085;-39
2024/03/11 05:43:20;;;;;;;2.72;2.33;;;19.30;99.90;;;;;;4976878;28;20090;-38
2024/03/11 05:45:47;;;;;;;2.08;1.92;;;19.20;99.90;;;;;;4980997;28;20034;-40
2024/03/11 05:48:13;;;;;;;1.70;1.60;;;19.20;99.90;;;;;;4982847;28;20019;-40
2024/03/11 05:50:39;;;;;;;2.13;1.60;;;19.20;99.90;;;;;;4979917;28;20027;-39
2024/03/11 05:53:05;;;;;;;2.50;2.28;;;19.20;99.90;;;;;;4980980;28;20045;-40
2024/03/11 05:55:33;;;;;;;2.22;2.03;;;19.20;99.90;;;;;;4984149;28;20050;-39
2024/03/11 05:58:08;;;;;;;2.80;2.05;;;19.20;99.90;;;;;;4984932;28;20038;-40
2024/03/11 06:00:36;;;;;;;2.00;1.80;;;19.20;99.90;;;;;;4979931;28;20038;-38
2024/03/11 06:03:02;;;;;;;1.90;1.75;;;19.20;99.90;;;;;;4981880;28;20082;-39
2024/03/11 06:05:28;;;;;;;3.20;2.45;;;19.20;99.90;;;;;;4980253;28;20015;-39
2024/03/11 06:07:54;;;;;;;1.55;1.35;;;19.20;99.90;;;;;;4979397;28;20022;-39
2024/03/11 06:10:19;;;;;;;1.90;1.63;;;19.20;99.90;;;;;;4974658;28;20405;-40
2024/03/11 06:12:46;;;;;;;1.75;1.65;;;19.30;99.90;;;;;;4975759;28;20027;-39
2024/03/11 06:15:12;;;;;;;2.40;1.70;;;19.30;99.90;;;;;;4974873;28;20050;-40
2024/03/11 06:17:37;;;;;;;1.73;1.60;;;19.30;99.90;;;;;;4975826;28;20033;-39
2024/03/11 06:20:09;;;;;;;2.72;1.67;;;19.30;99.90;;;;;;4975325;28;20184;-39
2024/03/11 06:22:35;;;;;;;1.88;1.65;;;19.30;99.90;;;;;;4975333;28;20489;-39
2024/03/11 06:25:02;;;;;;;1.67;1.58;;;19.30;99.90;;;;;;4973378;28;20426;-39
2024/03/11 06:27:27;;;;;;;2.78;1.80;;;19.30;99.90;;;;;;4972396;28;20034;-39
2024/03/11 06:29:53;;;;;;;1.83;1.63;;;19.40;99.90;;;;;;4974251;28;20031;-39
2024/03/11 06:32:20;;;;;;;2.22;2.03;;;19.40;99.90;;;;;;4974499;28;20033;-40
2024/03/11 06:34:46;;;;;;;1.95;1.70;;;19.30;99.90;;;;;;4973492;28;20031;-40
2024/03/11 06:37:11;;;;;;;1.77;1.67;;;19.30;99.90;;;;;;4973579;28;20048;-39
2024/03/11 06:39:38;;;;;;;1.60;1.42;;;19.30;99.90;;;;;;4975575;28;20493;-39
2024/03/11 06:42:05;;;;;;;1.83;1.73;;;19.40;99.90;;;;;;4975795;28;20031;-39
2024/03/11 06:44:32;;;;;;;1.73;1.63;;;19.30;99.90;;;;;;4975387;28;20029;-39
2024/03/11 06:46:58;;;;;;;1.70;1.60;;;19.30;99.90;;;;;;4975025;28;20053;-39
2024/03/11 06:49:24;;;;;;;1.98;1.65;;;19.40;99.90;;;;;;4976189;28;20402;-39
2024/03/11 06:51:50;;;;;;;2.47;1.83;;;19.30;99.90;;;;;;4972768;28;20026;-50
2024/03/11 06:54:16;;;;;;;1.88;1.77;;;19.20;99.90;;;;;;4972544;28;20038;-51
2024/03/11 06:56:41;;;;;;;2.92;1.63;;;19.20;99.90;;;;;;4973021;28;20026;-47
2024/03/11 06:59:10;;;;;;;1.92;1.75;;;19.10;99.90;;;;;;4972891;28;20034;-50
2024/03/11 07:01:36;;;;;;;2.30;1.80;;;19.10;99.90;;;;;;4972487;28;20035;-46
2024/03/11 07:04:03;;;;;;;2.63;1.50;;;19.10;99.90;;;;;;4972976;28;20478;-47
2024/03/11 07:06:29;;;;;;;3.25;1.50;;;19.10;99.90;;;;;;4973606;28;20042;-49
2024/03/11 07:08:55;;;;;;;9.25;1.70;;;19.20;99.90;;;;;;4972479;28;20041;-47
2024/03/11 07:11:21;;;;;;;4.78;1.90;;;19.20;99.90;;;;;;4985861;28;20027;-48
2024/03/11 07:13:47;;;;;;;3.78;1.98;;;19.20;99.90;;;;;;4968396;28;20057;-48
2024/03/11 07:16:13;;;;;;;6.03;1.70;;;19.20;99.90;;;;;;4968864;28;20529;-47
2024/03/11 07:18:42;;;;;;;5.68;1.88;;;19.30;99.90;;;;;;4970236;28;20023;-47
2024/03/11 07:21:11;;;;;;;5.03;2.28;;;19.30;99.90;;;;;;4969830;28;20034;-48
2024/03/11 07:23:36;;;;;;;4.50;1.90;;;19.30;99.90;;;;;;4969387;28;20078;-50
2024/03/11 07:26:02;;;;;;;8.05;2.00;;;19.30;99.90;;;;;;4968042;28;20702;-49
2024/03/11 07:28:29;;;;;;;6.20;1.75;;;19.30;99.90;;;;;;4969648;28;20027;-50
2024/03/11 07:30:57;;;;;;;8.35;2.83;;;19.30;99.90;;;;;;4971368;28;20053;-49
2024/03/11 07:33:23;;;;;;;3.13;1.88;;;19.30;99.90;;;;;;4970453;28;20430;-50
2024/03/11 07:35:51;;;;;;;11.70;1.83;;;19.30;99.90;;;;;;4972399;28;20538;-49
2024/03/11 07:38:17;;;;;;;2.10;1.20;;;19.30;99.90;;;;;;4970235;28;20049;-50
2024/03/11 07:40:43;;;;;;;2.95;1.60;;;19.30;99.90;;;;;;4970863;28;20030;-48
2024/03/11 07:43:10;;;;;;;6.55;1.98;;;19.30;99.90;;;;;;4967876;28;20031;-51
2024/03/11 07:45:40;;;;;;;3.22;1.38;;;19.40;99.90;;;;;;4971555;28;20023;-49
2024/03/11 07:48:08;;;;;;;2.55;1.52;;;19.30;99.90;;;;;;4973378;28;20074;-49
2024/03/11 07:50:34;;;;;;;8.90;1.50;;;19.40;99.90;;;;;;4973038;28;20034;-51
2024/03/11 07:53:00;;;;;;;4.68;2.10;;;19.40;99.90;;;;;;4973957;28;20038;-51
2024/03/11 07:55:28;;;;;;;4.22;1.45;;;19.40;99.90;;;;;;4972502;28;20026;-49
2024/03/11 07:57:55;;;;;;;4.75;1.70;;;19.40;99.90;;;;;;4971487;28;20042;-49
2024/03/11 08:00:29;;;;;;;8.38;1.58;;;19.60;99.90;;;;;;4972371;28;20059;-50
2024/03/11 08:02:57;;;;;;;7.82;2.53;;;19.60;99.90;;;;;;4971457;28;20030;-49
2024/03/11 08:05:23;;;;;;;6.45;2.28;;;19.60;99.90;;;;;;4974558;28;20045;-49
2024/03/11 08:07:49;;;;;;;6.90;1.92;;;19.50;99.90;;;;;;4973384;28;20359;-50
2024/03/11 08:10:16;;;;;;;8.63;1.90;;;19.50;99.90;;;;;;4971861;28;20035;-49
2024/03/11 08:12:43;;;;;;;3.13;1.70;;;19.50;99.90;;;;;;4973846;28;20034;-48
2024/03/11 08:15:14;;;;;;;6.53;2.33;;;19.50;99.90;;;;;;4973054;28;20058;-49
2024/03/11 08:17:43;;;;;;;14.32;2.30;;;19.50;99.90;;;;;;4970658;28;20031;-50
2024/03/11 08:20:12;;;;;;;4.85;2.20;;;19.50;99.90;;;;;;4974203;28;20106;-49
2024/03/11 08:22:43;;;;;;;8.73;1.60;;;19.50;99.90;;;;;;4972681;28;20048;-48
2024/03/11 08:25:11;;;;;;;6.72;1.98;;;19.50;99.90;;;;;;4973448;28;20393;-48
2024/03/11 08:27:37;;;;;;;6.72;1.55;;;19.40;99.90;;;;;;4973501;28;20089;-48
2024/03/11 08:30:04;;;;;;;9.73;3.03;;;19.40;99.90;;;;;;4973679;28;20054;-48
2024/03/11 08:32:31;;;;;;;4.32;1.85;;;19.40;99.90;;;;;;4970599;28;20358;-50
2024/03/11 08:34:56;;;;;;;5.07;1.98;;;19.40;99.90;;;;;;4973042;28;20029;-49
2024/03/11 08:37:22;;;;;;;5.75;2.30;;;19.40;99.90;;;;;;4973788;28;20102;-50
2024/03/11 08:39:48;;;;;;;8.32;1.90;;;19.40;99.90;;;;;;4969407;28;20089;-49
2024/03/11 08:42:14;;;;;;;5.65;2.17;;;19.40;99.90;;;;;;4972044;28;20031;-49
2024/03/11 08:44:43;;;;;;;9.40;2.75;;;19.40;99.90;;;;;;4969781;28;20049;-49
2024/03/11 08:47:11;;;;;;;6.10;2.13;;;19.40;99.90;;;;;;4974140;28;20044;-49
2024/03/11 08:49:40;;;;;;;4.82;1.88;;;19.40;99.90;;;;;;4973719;28;20038;-48
2024/03/11 08:52:06;;;;;;;7.43;2.25;;;19.40;99.90;;;;;;4972585;28;20061;-49
2024/03/11 08:54:32;;;;;;;3.80;1.27;;;19.40;99.90;;;;;;4972444;28;20035;-49
2024/03/11 08:56:59;;;;;;;7.85;1.58;;;19.40;99.90;;;;;;4973622;28;20033;-49
2024/03/11 08:59:26;;;;;;;11.93;2.10;;;19.40;99.90;;;;;;4972292;28;20110;-48
2024/03/11 09:01:57;;;;;;;3.17;2.40;;;19.40;99.90;;;;;;4971929;28;20061;-49
2024/03/11 09:04:26;;;;;;;5.03;1.35;;;19.40;99.90;;;;;;4972490;28;20026;-49
2024/03/11 09:06:53;;;;;;;6.90;2.03;;;19.40;99.90;;;;;;4973162;28;20031;-48
2024/03/11 09:09:24;;;;;;;6.13;1.95;;;19.40;99.90;;;;;;4973629;28;20461;-49
2024/03/11 09:11:54;;;;;;;3.30;1.60;;;19.30;99.90;;;;;;4973724;28;20030;-48
2024/03/11 09:14:20;;;;;;;4.20;1.55;;;19.30;99.90;;;;;;4973322;28;20035;-49
2024/03/11 09:16:46;;;;;;;6.07;1.80;;;19.30;99.90;;;;;;4974043;28;20426;-48
2024/03/11 09:19:14;;;;;;;8.13;2.15;;;19.30;99.90;;;;;;4972508;28;20116;-49
2024/03/11 09:21:41;;;;;;;4.07;1.50;;;19.30;99.90;;;;;;4972456;28;20139;-49
2024/03/11 09:24:07;;;;;;;5.90;1.88;;;19.30;99.90;;;;;;4972661;28;20019;-50
2024/03/11 09:26:33;;;;;;;4.28;1.38;;;19.20;99.90;;;;;;4974300;28;20031;-48
2024/03/11 09:28:58;;;;;;;6.95;1.48;;;19.20;99.90;;;;;;4972638;28;20031;-49
2024/03/11 09:31:24;;;;;;;3.92;1.33;;;19.20;99.90;;;;;;4973657;28;20476;-47
2024/03/11 09:33:52;;;;;;;2.80;1.30;;;19.20;99.90;;;;;;4974384;28;20022;-47
2024/03/11 09:36:17;;;;;;;2.28;1.27;;;19.20;99.90;;;;;;4975226;28;20038;-49
2024/03/11 09:38:43;;;;;;;8.60;1.05;;;19.20;99.90;;;;;;4975028;28;20031;-48
2024/03/11 09:41:14;;;;;;;6.05;1.60;;;19.20;99.90;;;;;;4973561;28;20031;-47
2024/03/11 09:43:48;;;;;;;3.33;1.67;;;19.20;99.90;;;;;;4975424;28;20053;-48
2024/03/11 09:46:20;;;;;;;3.35;1.73;;;19.30;99.90;;;;;;4974793;28;20111;-48
2024/03/11 09:48:51;;;;;;;4.72;1.73;;;19.30;99.90;;;;;;4973215;28;20026;-49
2024/03/11 09:51:24;;;;;;;7.30;1.05;;;19.30;99.90;;;;;;4972872;28;20031;-48
2024/03/11 09:53:54;;;;;;;2.70;1.23;;;19.30;99.90;;;;;;4973732;28;20121;-49
2024/03/11 09:56:23;;;;;;;3.13;1.50;;;19.30;99.90;;;;;;4974139;28;20423;-48
2024/03/11 09:58:58;;;;;;;2.03;1.42;;;19.30;99.90;;;;;;4974104;28;20034;-46
2024/03/11 10:01:33;;;;;;;2.70;1.20;;;19.30;99.90;;;;;;4972610;28;20179;-47
2024/03/11 10:03:59;;;;;;;1.90;1.00;;;19.30;99.90;;;;;;4973826;28;20126;-48
2024/03/11 10:06:28;;;;;;;3.05;1.10;;;19.30;99.90;;;;;;4973067;28;20022;-48
2024/03/11 10:08:54;;;;;;;3.83;1.00;;;19.30;99.90;;;;;;4974119;28;20030;-48
2024/03/11 10:11:24;;;;;;;4.00;1.67;;;19.40;99.90;;;;;;4973697;28;20023;-47
2024/03/11 10:13:52;;;;;;;1.83;0.85;;;19.40;99.90;;;;;;4974222;28;20019;-48
2024/03/11 10:16:21;;;;;;;1.98;1.45;;;19.40;99.90;;;;;;4972564;28;20382;-48
2024/03/11 10:19:11;;;;;;;2.80;1.63;;;19.40;99.90;;;;;;4970826;28;20058;-50
2024/03/11 10:21:40;;;;;;;4.72;1.40;;;19.40;99.90;;;;;;4968048;28;20121;-48
2024/03/11 10:24:08;;;;;;;7.35;1.30;;;19.50;99.90;;;;;;4972930;28;20062;-51
2024/03/11 10:26:40;;;;;;;8.57;1.90;;;19.50;99.90;;;;;;4970400;28;20034;-49
2024/03/11 10:29:11;;;;;;;5.00;1.60;;;19.50;99.90;;;;;;4972499;28;20030;-50
2024/03/11 10:31:40;;;;;;;2.88;1.20;;;19.60;99.90;;;;;;4978611;28;20030;-49
2024/03/11 10:34:12;;;;;;;4.85;1.70;;;19.60;99.90;;;;;;4971043;28;20027;-48
2024/03/11 10:36:42;;;;;;;7.88;1.38;;;19.70;99.90;;;;;;4971465;28;20454;-48
2024/03/11 10:41:50;;;;;;;4.63;1.42;;;19.90;99.90;;;;;;4969944;28;20053;-48
2024/03/11 10:44:23;;;;;;;4.50;1.40;;;19.90;99.90;;;;;;4971679;28;20098;-49
2024/03/11 10:46:48;;;;;;;9.02;1.45;;;20.00;99.90;;;;;;4973302;28;20031;-47
2024/03/11 10:49:14;;;;;;;3.53;1.35;;;20.10;99.90;;;;;;4972454;28;20085;-48
2024/03/11 10:51:45;;;;;;;3.20;1.40;;;20.10;99.90;;;;;;4971763;28;20034;-48
2024/03/11 10:54:22;;;;;;;6.18;1.83;;;20.10;99.90;;;;;;4973810;28;20534;-48
2024/03/11 10:56:55;;;;;;;1.88;1.40;;;20.10;99.90;;;;;;4957651;28;20031;-49
2024/03/11 10:59:22;;;;;;;3.70;1.35;;;20.10;99.90;;;;;;4973823;28;20125;-49
2024/03/11 11:01:57;;;;;;;2.42;1.15;;;20.10;99.90;;;;;;4972618;28;20490;-47
2024/03/11 11:04:28;;;;;;;2.17;1.30;;;20.10;99.90;;;;;;4973680;28;20023;-49
2024/03/11 11:06:56;;;;;;;6.22;1.38;;;20.20;99.90;;;;;;4973335;28;20027;-49
2024/03/11 11:09:22;;;;;;;4.32;1.52;;;20.20;99.90;;;;;;4973187;28;20030;-47
2024/03/11 11:11:54;;;;;;;11.10;1.55;;;20.20;99.90;;;;;;4972817;28;20035;-48
2024/03/11 11:14:21;;;;;;;5.28;1.20;;;20.20;99.90;;;;;;4973237;28;20031;-48
2024/03/11 11:16:51;;;;;;;8.50;1.75;;;20.30;99.90;;;;;;4972402;28;20037;-48
2024/03/11 11:19:22;;;;;;;10.30;1.73;;;20.30;99.90;;;;;;4971668;28;20026;-47
2024/03/11 11:21:50;;;;;;;6.20;1.25;;;20.40;99.90;;;;;;4973187;28;20027;-50
2024/03/11 11:24:27;;;;;;;9.90;2.08;;;20.50;99.90;;;;;;4975105;28;20122;-48
2024/03/11 11:26:56;;;;;;;5.05;1.23;;;20.50;99.90;;;;;;4975873;28;20027;-48
2024/03/11 11:29:25;;;;;;;3.97;1.23;;;20.50;99.90;;;;;;4976646;28;20039;-49
2024/03/11 11:32:08;;;;;;;10.57;1.40;;;20.40;99.90;;;;;;4976415;28;20626;-47
2024/03/11 11:34:50;;;;;;;4.13;1.02;;;20.40;99.90;;;;;;4977398;28;20035;-47
2024/03/11 11:37:19;;;;;;;;;;;20.40;99.90;;;;;;4977532;28;20030;-47
2024/03/11 11:39:45;;;;;;;6.22;1.10;;;20.60;99.90;;;;;;4976928;28;19914;-47
2024/03/11 11:42:37;;;;;;;6.05;1.83;;;20.70;99.90;;;;;;4975738;28;20139;-47
2024/03/11 11:45:11;;;;;;;4.47;0.98;;;20.80;99.90;;;;;;4977399;28;20015;-48
2024/03/11 11:47:37;;;;;;;1.98;0.90;;;20.80;99.90;;;;;;4992179;28;20381;-47
2024/03/11 11:50:26;;;;;;;3.28;1.38;;;20.90;99.90;;;;;;4976901;28;20034;-48
2024/03/11 11:53:02;;;;;;;4.32;1.45;;;20.90;99.90;;;;;;4990503;28;20544;-48
2024/03/11 11:55:32;;;;;;;4.88;1.20;;;20.90;99.90;;;;;;4990111;28;20073;-48
2024/03/11 11:58:07;;;;;;;4.68;1.40;;;20.90;99.90;;;;;;4976132;28;20473;-49
2024/03/11 12:00:43;;;;;;;2.95;1.15;;;20.80;99.90;;;;;;4975876;28;20023;-49
2024/03/11 12:03:30;;;;;;;3.30;0.90;;;20.70;99.90;;;;;;4990674;28;20027;-47
2024/03/11 12:06:17;;;;;;;3.60;1.20;;;20.50;99.90;;;;;;4976676;28;20022;-48
2024/03/11 12:08:44;;;;;;;7.28;1.23;;;20.50;99.90;;;;;;4976479;28;20450;-48
2024/03/11 12:11:21;;;;;;;2.33;0.90;;;20.40;99.90;;;;;;4975288;28;20027;-48
2024/03/11 12:13:54;;;;;;;2.85;1.05;;;20.40;99.90;;;;;;4976158;28;20585;-49
2024/03/11 12:16:24;;;;;;;3.03;1.30;;;20.50;99.90;;;;;;4975621;28;20027;-48
2024/03/11 12:19:05;;;;;;;4.18;1.60;;;20.40;99.90;;;;;;4974258;28;20034;-48
2024/03/11 12:21:38;;;;;;;2.97;0.80;;;20.40;99.90;;;;;;4973791;28;20041;-51
2024/03/11 12:24:10;;;;;;;2.58;0.95;;;20.60;99.90;;;;;;4974491;28;20031;-50
2024/03/11 12:26:36;;;;;;;2.45;0.80;;;20.70;99.90;;;;;;4975742;28;20027;-49
2024/03/11 12:29:04;;;;;;;5.68;1.73;;;20.70;99.90;;;;;;4975700;28;20106;-49
2024/03/11 12:31:33;;;;;;;1.77;0.95;;;20.70;99.90;;;;;;4973801;28;20037;-49
2024/03/11 12:34:15;;;;;;;4.35;1.27;;;20.70;99.90;;;;;;4975111;28;20035;-50
2024/03/11 12:36:46;;;;;;;4.30;0.88;;;20.70;99.90;;;;;;4973511;28;20037;-49
2024/03/11 12:39:25;;;;;;;2.30;0.70;;;20.60;99.90;;;;;;4973746;28;20018;-51
2024/03/11 12:41:55;;;;;;;2.53;0.80;;;20.50;99.90;;;;;;4989482;28;20034;-49
2024/03/11 12:44:21;;;;;;;4.10;0.98;;;20.50;99.90;;;;;;4974613;28;20023;-48
2024/03/11 12:46:53;;;;;;;4.20;0.90;;;20.40;99.90;;;;;;4975060;28;20030;-48
2024/03/11 12:49:20;;;;;;;2.22;0.65;;;20.40;99.90;;;;;;4975580;28;20062;-49
2024/03/11 12:51:47;;;;;;;1.77;1.35;;;20.30;99.90;;;;;;4974877;28;20104;-49
2024/03/11 12:54:24;;;;;;;0.95;0.80;;;20.40;99.90;;;;;;4999359;23;20038;-57
2024/03/11 12:57:14;;;;;;;2.80;1.00;;;20.40;99.90;;;;;;4993189;28;20034;-56